Topcliffe, United Kingdom
Current Conditions -  °F | °C
As of 1:50 AM on Saturday 20 Dec 2014 (Local Time) from EGXZ Reporting Station
Broken Clouds Broken Clouds  
Wind Chill:   Ceiling: 3900
Heat Index:   Visibility: 6mi
Dew Point:   Wind: 18mph
Humidity: 66%   Direction: 270°W
Pressure: 29.97"   Gusts: 32mph
Location:  54.2°N, 1.38°W
Report Text: EGXZ 200150Z AUTO 27016G28KT 9999 FEW028/// BKN039/// 08/02 Q1015 RERA
Loading
Personal Weather Stations






























Interactive Weather Map New forecast layout! Learn more

10-Day Weather Forecast

Advertisements
Track Severe Weather on mobile